Gaspé Airport, Quebec

Past 24 Hour Conditions

This table is a summary of hourly weather conditions for the past 24 hours. This summary includes the following parameters: temperature, humidity, dew point, wind speed and direction, air pressure, visibility and/or wind chill and humidex.
Date / Time
(EDT)
Conditions Temp (°F) Humidity (%) Dew Point (°F) Wind (mph) Pressure (inches) Vis (mi) Humidex
28 July 2014
10:00 Mist 67 86 63 SSE 8 29.8 12 *
9:00 Light Rain 66 89 63 ENE 7 29.8 10 *
8:00 Mostly Cloudy 68 77 60 SSW 11 gust 21 29.8 12 *
7:00 Mostly Cloudy 64   86 60 E 7 29.8 15 *
6:00 Mostly Cloudy 66 76 58 S 9 gust 18 29.8 15 *
5:00 Mostly Cloudy 65 72 56 SSW 18 gust 31 29.7 15 *
4:00 Cloudy 67 77 60 SSW 16 gust 24 29.7 15 *
3:00 Partly Cloudy 68 75 60 S 22 gust 31 29.7 15 *
2:00 Partly Cloudy 68 81 62 SSW 18 gust 35 29.7 15 *
1:00 Light Rain 66 84 61 SSW 19 gust 30 29.7 6 *
00:00 Mostly Cloudy 70 65 58 S 17 gust 30 29.7 15 77
27 July 2014
23:00 Partly Cloudy 71 61 58 S 22 gust 32 29.7 15 78
22:00 Partly Cloudy 72 68 61 S 11 gust 20 29.7 15 80
21:00 Partly Cloudy 72 69 61 SSE 9 gust 20 29.7 15 80
20:00 Partly Cloudy 72 70 62 S 11 29.7 15 80
19:00 Partly Cloudy 74 64 61 S 10 29.7 15 82
18:00 Partly Cloudy 75 64 62 S 8 29.7 15 84
17:00 Partly Cloudy 75 63 62 SSE 10 29.7 15 85
16:00 Partly Cloudy 78 53 60 S 14 gust 20 29.7 15 86
15:00 Partly Cloudy 80   46 57 S 10 gust 20 29.7 15 86
14:00 Partly Cloudy 80   46 58 SSE 10 gust 17 29.7 15 86
13:00 Partly Cloudy 78 50 59 S 9 gust 21 29.7 15 85
12:00 Partly Cloudy 79 48 58 SSW 13 29.8 15 86
11:00 Mostly Cloudy 73 73 64 ENE 5 29.8 15 84
10:00 Mostly Cloudy 68 78 61 E 6 29.8 15 77
N/A
Not available
 ↑ 
Highest temperature
 ↓ 
Lowest temperature
*
Value not significant.

If you require additional historical weather information, please visit Climate Data Online.